Point Fosdick, Washington
Current Conditions -  °F | °C
As of 2:53 AM on Sunday 26 Oct 2014 (Local Time) from KTIW Reporting Station
Few Clouds Few Clouds  
Wind Chill: 50°   Ceiling: Unl
Heat Index: 50°   Visibility: 10mi
Dew Point: 43°   Wind: 14mph
Humidity: 77%   Direction: 210°SSW
Pressure: 29.85"   Gusts: 22mph
Location:  47.2986°N, 122.616°W
Report Text: KTIW 260953Z AUTO 21012G19KT 10SM FEW060 10/06 A2985 RMK AO2 RAB0854E35 SLP108 P0000 T01000061
Loading
Personal Weather Stations






























Interactive Weather Map
Tropical Storm Tracking
New forecast layout! Learn more

10-Day Weather Forecast

Advertisements
Track Severe Weather on mobile